sensor_id;sensor_type;location;lat;lon;timestamp;pressure;altitude;pressure_sealevel;temperature;humidity
61740;BME280;47645;45.288;12.038;2022-12-29T00:03:15;1023.4735741415811;;;8.2916015625;100
61740;BME280;47645;45.288;12.038;2022-12-29T00:44:22;1022.9555185833923;;;8.4291015625;100
61740;BME280;47645;45.288;12.038;2022-12-29T00:53:18;1022.8269019889858;;;8.266015625;100
61740;BME280;47645;45.288;12.038;2022-12-29T01:03:18;1023.0327920192339;;;8.25078125;100
61740;BME280;47645;45.288;12.038;2022-12-29T01:13:19;1023.1087958897407;;;8.3884765625;100
61740;BME280;47645;45.288;12.038;2022-12-29T01:23:19;1023.0639386110581;;;8.3935546875;100
61740;BME280;47645;45.288;12.038;2022-12-29T01:33:20;1023.0661121422871;;;8.2865234375;100
61740;BME280;47645;45.288;12.038;2022-12-29T01:43:20;1022.8636431122334;;;8.14375;100
61740;BME280;47645;45.288;12.038;2022-12-29T01:53:24;1022.8742093968812;;;8.15390625;100
61740;BME280;47645;45.288;12.038;2022-12-29T02:03:23;1022.7946532894325;;;8.1234375;100
61740;BME280;47645;45.288;12.038;2022-12-29T02:13:24;1022.970500920045;;;8.148828125;100
61740;BME280;47645;45.288;12.038;2022-12-29T02:23:38;1022.8731392202978;;;8.2099609375;100
61740;BME280;47645;45.288;12.038;2022-12-29T02:33:33;1022.7089356859593;;;8.1693359375;100
61740;BME280;47645;45.288;12.038;2022-12-29T02:43:29;1022.7563662962427;;;8.1640625;100
61740;BME280;47645;45.288;12.038;2022-12-29T02:54:41;1022.7967613545062;;;8.23046875;100
61740;BME280;47645;45.288;12.038;2022-12-29T03:03:36;1022.7795391498303;;;8.1640625;100
61740;BME280;47645;45.288;12.038;2022-12-29T03:23:27;1022.3959959439288;;;8.15390625;100
61740;BME280;47645;45.288;12.038;2022-12-29T03:33:28;1022.2133986922445;;;8.3017578125;100
61740;BME280;47645;45.288;12.038;2022-12-29T03:43:27;1022.038193594526;;;8.36796875;100
61740;BME280;47645;45.288;12.038;2022-12-29T03:53:27;1022.3225576527138;;;8.3884765625;100
61740;BME280;47645;45.288;12.038;2022-12-29T04:03:27;1022.3777113144413;;;8.011328125;100
61740;BME280;47645;45.288;12.038;2022-12-29T04:13:28;1022.2571728565455;;;7.720703125;100
61740;BME280;47645;45.288;12.038;2022-12-29T04:23:29;1022.3044846385153;;;7.944921875;100
61740;BME280;47645;45.288;12.038;2022-12-29T04:33:29;1022.2420534322738;;;8.0978515625;100
61740;BME280;47645;45.288;12.038;2022-12-29T04:43:29;1022.4836074041724;;;7.7462890625;100
61740;BME280;47645;45.288;12.038;2022-12-29T04:53:30;1022.3556554104975;;;7.5220703125;100
61740;BME280;47645;45.288;12.038;2022-12-29T05:03:30;1022.4366961643552;;;7.6595703125;100
61740;BME280;47645;45.288;12.038;2022-12-29T05:13:30;1022.2589125393914;;;7.72578125;100
61740;BME280;47645;45.288;12.038;2022-12-29T05:23:31;1022.3566845782292;;;7.827734375;100
61740;BME280;47645;45.288;12.038;2022-12-29T05:33:31;1022.918164102413;;;7.9501953125;100
61740;BME280;47645;45.288;12.038;2022-12-29T05:43:32;1022.6149330978659;;;7.9654296875;100
61740;BME280;47645;45.288;12.038;2022-12-29T05:53:32;1022.6522604504448;;;7.8888671875;100
61740;BME280;47645;45.288;12.038;2022-12-29T06:03:32;1022.5861335437552;;;7.8888671875;100
61740;BME280;47645;45.288;12.038;2022-12-29T06:13:33;1022.5729114760047;;;7.9296875;100
61740;BME280;47645;45.288;12.038;2022-12-29T06:23:33;1022.7261119637656;;;8.13359375;100
61740;BME280;47645;45.288;12.038;2022-12-29T06:33:34;1022.4428936735061;;;8.0673828125;100
61740;BME280;47645;45.288;12.038;2022-12-29T06:43:36;1022.4252452549615;;;8.011328125;100
61740;BME280;47645;45.288;12.038;2022-12-29T06:53:35;1022.5652853656912;;;7.924609375;100
61740;BME280;47645;45.288;12.038;2022-12-29T07:03:35;1022.7436279503785;;;7.9806640625;100
61740;BME280;47645;45.288;12.038;2022-12-29T07:13:35;1022.7096865357889;;;7.8837890625;100
61740;BME280;47645;45.288;12.038;2022-12-29T07:23:36;1022.7469738224203;;;7.817578125;100
61740;BME280;47645;45.288;12.038;2022-12-29T07:33:36;1022.7236383210598;;;7.623828125;100
61740;BME280;47645;45.288;12.038;2022-12-29T07:43:37;1022.832483016774;;;7.9552734375;100
61740;BME280;47645;45.288;12.038;2022-12-29T07:53:37;1022.7702937170906;;;8.15390625;100
61740;BME280;47645;45.288;12.038;2022-12-29T08:03:38;1022.8474513624366;;;8.36796875;100
61740;BME280;47645;45.288;12.038;2022-12-29T08:13:38;1022.9594404801406;;;8.4087890625;100
61740;BME280;47645;45.288;12.038;2022-12-29T08:23:39;1022.9054336375141;;;8.653515625;98.5337543359444
61740;BME280;47645;45.288;12.038;2022-12-29T08:33:39;1023.0944811167335;;;8.5310546875;98.86260336116767
61740;BME280;47645;45.288;12.038;2022-12-29T08:43:39;1022.8597633225867;;;8.5056640625;99.62282896533395
61740;BME280;47645;45.288;12.038;2022-12-29T08:53:40;1023.0447124556152;;;8.7349609375;98.46062411971673
61740;BME280;47645;45.288;12.038;2022-12-29T09:03:40;1023.2496012253283;;;8.587109375;100
61740;BME280;47645;45.288;12.038;2022-12-29T09:13:41;1023.320457880915;;;8.6228515625;100
61740;BME280;47645;45.288;12.038;2022-12-29T09:23:41;1023.5108838591171;;;8.9591796875;98.9941751581836
61740;BME280;47645;45.288;12.038;2022-12-29T09:33:41;1023.4189626950401;;;8.9490234375;99.6679393607872
61740;BME280;47645;45.288;12.038;2022-12-29T09:43:57;1023.4680247722641;;;8.98984375;99.21283235084141
61740;BME280;47645;45.288;12.038;2022-12-29T09:53:46;1023.4277443268226;;;8.908203125;97.30502816502917
61740;BME280;47645;45.288;12.038;2022-12-29T10:03:47;1023.3529029373129;;;9.2548828125;97.9960887712652
61740;BME280;47645;45.288;12.038;2022-12-29T10:13:56;1022.9400984061259;;;9.733984375;94.86768646723311
61740;BME280;47645;45.288;12.038;2022-12-29T10:23:46;1022.9972056312505;;;9.9734375;93.98190538250239
61740;BME280;47645;45.288;12.038;2022-12-29T10:33:44;1022.7872650098815;;;9.851171875;94.82786520881172
61740;BME280;47645;45.288;12.038;2022-12-29T10:43:47;1022.7359387024349;;;10.0703125;94.88886791525849
61740;BME280;47645;45.288;12.038;2022-12-29T10:53:48;1022.77807038209;;;10.3455078125;93.3669492818369
61740;BME280;47645;45.288;12.038;2022-12-29T11:03:53;1022.7312614287378;;;10.212890625;92.48870054802819
61740;BME280;47645;45.288;12.038;2022-12-29T11:13:49;1022.8675012748498;;;10.2181640625;92.79307628115272
61740;BME280;47645;45.288;12.038;2022-12-29T11:23:55;1022.7874322421842;;;10.0345703125;95.76539500861628
61740;BME280;47645;45.288;12.038;2022-12-29T11:33:47;1022.4833816128319;;;10.51875;94.80303896917957
61740;BME280;47645;45.288;12.038;2022-12-29T11:43:48;1022.3895572311203;;;10.6564453125;93.20180510675897
61740;BME280;47645;45.288;12.038;2022-12-29T11:53:51;1022.1186313336653;;;10.6615234375;91.87564965669618
61740;BME280;47645;45.288;12.038;2022-12-29T12:03:57;1022.0297396940634;;;10.83984375;91.71504277231402
61740;BME280;47645;45.288;12.038;2022-12-29T12:13:58;1021.8933137782691;;;10.9671875;91.24980676848182
61740;BME280;47645;45.288;12.038;2022-12-29T12:24:34;1021.840897961604;;;11.2119140625;90.06776594002318
61740;BME280;47645;45.288;12.038;2022-12-29T12:33:56;1021.7954284158023;;;11.3291015625;90.86598331811085
61740;BME280;47645;45.288;12.038;2022-12-29T12:44:00;1021.4963110547292;;;11.88984375;89.95701980887465
61740;BME280;47645;45.288;12.038;2022-12-29T12:54:03;1021.6230897687835;;;11.5279296875;89.89890606651723
61740;BME280;47645;45.288;12.038;2022-12-29T13:04:05;1021.5851370910328;;;11.4921875;92.0165527100118
61740;BME280;47645;45.288;12.038;2022-12-29T13:14:07;1021.7277206340664;;;11.0896484375;92.53156935920215
61740;BME280;47645;45.288;12.038;2022-12-29T13:23:58;1021.70902126567;;;10.931640625;94.42671977647827
61740;BME280;47645;45.288;12.038;2022-12-29T13:34:01;1021.6818156910907;;;10.824609375;95.25854056115114
61740;BME280;47645;45.288;12.038;2022-12-29T13:43:55;1021.6514000060174;;;10.7990234375;96.85591637135423
61740;BME280;47645;45.288;12.038;2022-12-29T13:54:03;1021.6948351378721;;;10.717578125;96.71176447372567
61740;BME280;47645;45.288;12.038;2022-12-29T14:03:57;1021.8206346384677;;;10.6564453125;95.75925980721091
61740;BME280;47645;45.288;12.038;2022-12-29T14:13:57;1021.9286052318776;;;10.4984375;99.70774183079538
61740;BME280;47645;45.288;12.038;2022-12-29T14:24:28;1021.8213953988151;;;10.416796875;100
61740;BME280;47645;45.288;12.038;2022-12-29T14:34:16;1021.762869286923;;;10.299609375;98.40958840542787
61740;BME280;47645;45.288;12.038;2022-12-29T14:44:02;1021.832806127851;;;10.38125;99.49199814695773
61740;BME280;47645;45.288;12.038;2022-12-29T14:53:59;1021.7864565242925;;;10.279296875;99.66580718759232
61740;BME280;47645;45.288;12.038;2022-12-29T15:04:05;1021.6382584850377;;;9.978515625;100
61740;BME280;47645;45.288;12.038;2022-12-29T15:14:00;1021.6239383400315;;;10.0142578125;100
61740;BME280;47645;45.288;12.038;2022-12-29T15:24:00;1021.7232602526595;;;9.9021484375;100
61740;BME280;47645;45.288;12.038;2022-12-29T15:34:09;1021.5577802236372;;;9.8255859375;100
61740;BME280;47645;45.288;12.038;2022-12-29T15:44:10;1021.3995245396401;;;9.8255859375;100
61740;BME280;47645;45.288;12.038;2022-12-29T15:54:02;1021.4542236757512;;;9.8205078125;100
61740;BME280;47645;45.288;12.038;2022-12-29T16:04:05;1021.4318722732952;;;9.754296875;100
61740;BME280;47645;45.288;12.038;2022-12-29T16:14:07;1021.3434525033516;;;9.6982421875;98.96099020971894
61740;BME280;47645;45.288;12.038;2022-12-29T16:24:07;1021.3204777187417;;;9.7236328125;100
61740;BME280;47645;45.288;12.038;2022-12-29T16:34:12;1021.4917916969447;;;9.6982421875;100
61740;BME280;47645;45.288;12.038;2022-12-29T16:44:12;1021.4915086087822;;;9.6421875;100
61740;BME280;47645;45.288;12.038;2022-12-29T16:54:05;1021.3834965784969;;;9.861328125;100
61740;BME280;47645;45.288;12.038;2022-12-29T17:04:07;1021.4016580998734;;;9.65234375;100
61740;BME280;47645;45.288;12.038;2022-12-29T17:14:18;1021.6941943368037;;;9.5912109375;100
61740;BME280;47645;45.288;12.038;2022-12-29T17:24:09;1021.905196399997;;;9.4740234375;100
61740;BME280;47645;45.288;12.038;2022-12-29T17:34:07;1021.9187780421713;;;9.6830078125;100
61740;BME280;47645;45.288;12.038;2022-12-29T17:44:14;1021.7652238966454;;;9.754296875;100
61740;BME280;47645;45.288;12.038;2022-12-29T17:54:17;1021.76223383324;;;9.560546875;100
61740;BME280;47645;45.288;12.038;2022-12-29T18:04:10;1021.8521410773715;;;9.6216796875;100
61740;BME280;47645;45.288;12.038;2022-12-29T18:14:11;1021.9426268881787;;;9.6779296875;100
61740;BME280;47645;45.288;12.038;2022-12-29T18:24:12;1021.8661505737338;;;9.7236328125;100
61740;BME280;47645;45.288;12.038;2022-12-29T18:34:13;1021.9161819469326;;;9.744140625;100
61740;BME280;47645;45.288;12.038;2022-12-29T18:44:11;1021.9311298434138;;;9.4994140625;100
61740;BME280;47645;45.288;12.038;2022-12-29T18:54:21;1021.9361957717447;;;9.3974609375;100
61740;BME280;47645;45.288;12.038;2022-12-29T19:04:11;1022.0009011286347;;;9.326171875;100
61740;BME280;47645;45.288;12.038;2022-12-29T19:14:14;1021.967805500091;;;9.10703125;100
61740;BME280;47645;45.288;12.038;2022-12-29T19:24:12;1021.9113084794606;;;8.984765625;100
61740;BME280;47645;45.288;12.038;2022-12-29T19:34:13;1021.7985215136467;;;9.1580078125;100
61740;BME280;47645;45.288;12.038;2022-12-29T19:44:12;1021.8104312216753;;;8.89296875;100
61740;BME280;47645;45.288;12.038;2022-12-29T19:54:13;1021.6377592915836;;;8.9388671875;100
61740;BME280;47645;45.288;12.038;2022-12-29T20:04:14;1021.6233282098706;;;8.8623046875;100
61740;BME280;47645;45.288;12.038;2022-12-29T20:14:14;1021.6942263694275;;;8.80625;100
61740;BME280;47645;45.288;12.038;2022-12-29T20:24:15;1021.6983077285099;;;8.7298828125;100
61740;BME280;47645;45.288;12.038;2022-12-29T20:34:15;1021.6272011387214;;;8.6076171875;100
61740;BME280;47645;45.288;12.038;2022-12-29T20:44:15;1021.6584968776365;;;8.653515625;100
61740;BME280;47645;45.288;12.038;2022-12-29T20:54:17;1021.6134368202686;;;8.8572265625;100
61740;BME280;47645;45.288;12.038;2022-12-29T21:04:16;1021.4549601367977;;;8.8166015625;100
61740;BME280;47645;45.288;12.038;2022-12-29T21:14:16;1021.2287136178666;;;8.918359375;100
61740;BME280;47645;45.288;12.038;2022-12-29T21:24:19;1021.051701190853;;;9.0203125;100
61740;BME280;47645;45.288;12.038;2022-12-29T21:34:17;1021.1322762568129;;;8.9287109375;100
61740;BME280;47645;45.288;12.038;2022-12-29T21:55:23;1020.8304702044475;;;8.811328125;100
61740;BME280;47645;45.288;12.038;2022-12-29T22:14:19;1021.2470090879218;;;8.7248046875;100
61740;BME280;47645;45.288;12.038;2022-12-29T22:24:19;1021.1671785248429;;;8.663671875;100
61740;BME280;47645;45.288;12.038;2022-12-29T22:34:20;1021.2395895906012;;;8.342578125;100
61740;BME280;47645;45.288;12.038;2022-12-29T22:44:22;1021.0468116949814;;;8.15390625;100
61740;BME280;47645;45.288;12.038;2022-12-29T22:54:21;1021.1144678236743;;;7.914453125;100
61740;BME280;47645;45.288;12.038;2022-12-29T23:04:22;1021.2220368159961;;;8.011328125;100
61740;BME280;47645;45.288;12.038;2022-12-29T23:14:22;1021.0593818918528;;;7.8736328125;100
61740;BME280;47645;45.288;12.038;2022-12-29T23:24:22;1020.9046179524389;;;8.15390625;100
61740;BME280;47645;45.288;12.038;2022-12-29T23:34:23;1020.8425304639806;;;7.9501953125;100
61740;BME280;47645;45.288;12.038;2022-12-29T23:44:23;1020.8912737111109;;;8.046875;100
61740;BME280;47645;45.288;12.038;2022-12-29T23:54:25;1020.8622597287358;;;7.8431640625;100
